sensor_id;sensor_type;location;lat;lon;timestamp;P1;durP1;ratioP1;P2;durP2;ratioP2
4053;SDS011;2042;47.956;9.222;2024-02-26T00:01:28;2.57;;;2.37;;
4053;SDS011;2042;47.956;9.222;2024-02-26T00:03:58;2.80;;;2.60;;
4053;SDS011;2042;47.956;9.222;2024-02-26T00:06:24;2.70;;;2.50;;
4053;SDS011;2042;47.956;9.222;2024-02-26T00:08:50;2.30;;;2.10;;
4053;SDS011;2042;47.956;9.222;2024-02-26T00:11:16;2.90;;;2.20;;
4053;SDS011;2042;47.956;9.222;2024-02-26T00:13:41;2.47;;;2.27;;
4053;SDS011;2042;47.956;9.222;2024-02-26T00:16:07;2.70;;;2.10;;
4053;SDS011;2042;47.956;9.222;2024-02-26T00:18:33;2.43;;;2.23;;
4053;SDS011;2042;47.956;9.222;2024-02-26T00:20:59;2.83;;;2.63;;
4053;SDS011;2042;47.956;9.222;2024-02-26T00:23:25;4.30;;;2.83;;
4053;SDS011;2042;47.956;9.222;2024-02-26T00:25:52;2.20;;;2.00;;
4053;SDS011;2042;47.956;9.222;2024-02-26T00:28:17;2.30;;;2.10;;
4053;SDS011;2042;47.956;9.222;2024-02-26T00:30:45;3.10;;;2.30;;
4053;SDS011;2042;47.956;9.222;2024-02-26T00:33:10;2.07;;;1.87;;
4053;SDS011;2042;47.956;9.222;2024-02-26T00:35:36;6.93;;;2.10;;
4053;SDS011;2042;47.956;9.222;2024-02-26T00:38:02;2.17;;;2.07;;
4053;SDS011;2042;47.956;9.222;2024-02-26T00:40:28;2.73;;;2.53;;
4053;SDS011;2042;47.956;9.222;2024-02-26T00:42:54;8.00;;;2.33;;
4053;SDS011;2042;47.956;9.222;2024-02-26T00:45:20;2.30;;;2.10;;
4053;SDS011;2042;47.956;9.222;2024-02-26T00:47:45;2.60;;;2.40;;
4053;SDS011;2042;47.956;9.222;2024-02-26T00:50:12;3.03;;;2.47;;
4053;SDS011;2042;47.956;9.222;2024-02-26T00:52:38;2.53;;;2.33;;
4053;SDS011;2042;47.956;9.222;2024-02-26T00:55:04;4.03;;;2.03;;
4053;SDS011;2042;47.956;9.222;2024-02-26T00:57:31;3.03;;;2.37;;
4053;SDS011;2042;47.956;9.222;2024-02-26T00:59:56;3.03;;;2.40;;
4053;SDS011;2042;47.956;9.222;2024-02-26T01:02:22;2.73;;;2.33;;
4053;SDS011;2042;47.956;9.222;2024-02-26T01:04:48;2.47;;;2.27;;
4053;SDS011;2042;47.956;9.222;2024-02-26T01:07:14;3.63;;;2.60;;
4053;SDS011;2042;47.956;9.222;2024-02-26T01:09:39;3.00;;;2.10;;
4053;SDS011;2042;47.956;9.222;2024-02-26T01:12:05;3.27;;;2.50;;
4053;SDS011;2042;47.956;9.222;2024-02-26T01:14:31;5.30;;;2.67;;
4053;SDS011;2042;47.956;9.222;2024-02-26T01:16:57;2.83;;;2.50;;
4053;SDS011;2042;47.956;9.222;2024-02-26T01:19:22;4.37;;;2.30;;
4053;SDS011;2042;47.956;9.222;2024-02-26T01:21:48;2.47;;;2.27;;
4053;SDS011;2042;47.956;9.222;2024-02-26T01:24:13;2.57;;;2.30;;
4053;SDS011;2042;47.956;9.222;2024-02-26T01:26:40;2.13;;;2.00;;
4053;SDS011;2042;47.956;9.222;2024-02-26T01:29:06;2.10;;;1.90;;
4053;SDS011;2042;47.956;9.222;2024-02-26T01:31:31;2.93;;;2.33;;
4053;SDS011;2042;47.956;9.222;2024-02-26T01:33:57;2.90;;;2.20;;
4053;SDS011;2042;47.956;9.222;2024-02-26T01:36:23;2.13;;;1.97;;
4053;SDS011;2042;47.956;9.222;2024-02-26T01:38:48;1.93;;;1.83;;
4053;SDS011;2042;47.956;9.222;2024-02-26T01:41:14;2.43;;;1.73;;
4053;SDS011;2042;47.956;9.222;2024-02-26T01:43:40;1.90;;;1.80;;
4053;SDS011;2042;47.956;9.222;2024-02-26T01:46:06;3.03;;;2.40;;
4053;SDS011;2042;47.956;9.222;2024-02-26T01:48:37;2.20;;;2.00;;
4053;SDS011;2042;47.956;9.222;2024-02-26T01:51:03;2.17;;;1.80;;
4053;SDS011;2042;47.956;9.222;2024-02-26T01:53:28;2.70;;;2.50;;
4053;SDS011;2042;47.956;9.222;2024-02-26T01:55:55;3.27;;;2.23;;
4053;SDS011;2042;47.956;9.222;2024-02-26T01:58:20;2.50;;;2.27;;
4053;SDS011;2042;47.956;9.222;2024-02-26T02:00:46;2.27;;;2.07;;
4053;SDS011;2042;47.956;9.222;2024-02-26T02:03:12;2.97;;;2.67;;
4053;SDS011;2042;47.956;9.222;2024-02-26T02:05:38;3.13;;;2.83;;
4053;SDS011;2042;47.956;9.222;2024-02-26T02:08:08;2.77;;;2.57;;
4053;SDS011;2042;47.956;9.222;2024-02-26T02:10:36;4.50;;;2.60;;
4053;SDS011;2042;47.956;9.222;2024-02-26T02:13:03;2.97;;;2.30;;
4053;SDS011;2042;47.956;9.222;2024-02-26T02:15:28;4.87;;;3.37;;
4053;SDS011;2042;47.956;9.222;2024-02-26T02:17:54;2.00;;;1.90;;
4053;SDS011;2042;47.956;9.222;2024-02-26T02:20:24;3.43;;;2.80;;
4053;SDS011;2042;47.956;9.222;2024-02-26T02:22:59;3.60;;;2.70;;
4053;SDS011;2042;47.956;9.222;2024-02-26T02:25:25;2.60;;;2.40;;
4053;SDS011;2042;47.956;9.222;2024-02-26T02:27:51;2.67;;;2.47;;
4053;SDS011;2042;47.956;9.222;2024-02-26T02:30:18;3.00;;;2.73;;
4053;SDS011;2042;47.956;9.222;2024-02-26T02:32:46;7.03;;;2.33;;
4053;SDS011;2042;47.956;9.222;2024-02-26T02:35:11;3.00;;;2.23;;
4053;SDS011;2042;47.956;9.222;2024-02-26T02:37:37;2.40;;;2.20;;
4053;SDS011;2042;47.956;9.222;2024-02-26T02:40:03;3.00;;;2.60;;
4053;SDS011;2042;47.956;9.222;2024-02-26T02:42:30;3.33;;;2.20;;
4053;SDS011;2042;47.956;9.222;2024-02-26T02:44:56;2.90;;;2.70;;
4053;SDS011;2042;47.956;9.222;2024-02-26T02:47:26;3.30;;;2.60;;
4053;SDS011;2042;47.956;9.222;2024-02-26T02:49:51;3.03;;;2.83;;
4053;SDS011;2042;47.956;9.222;2024-02-26T02:52:17;2.53;;;2.10;;
4053;SDS011;2042;47.956;9.222;2024-02-26T02:54:43;2.50;;;2.00;;
4053;SDS011;2042;47.956;9.222;2024-02-26T02:57:08;3.57;;;2.23;;
4053;SDS011;2042;47.956;9.222;2024-02-26T02:59:35;3.07;;;2.60;;
4053;SDS011;2042;47.956;9.222;2024-02-26T03:02:01;2.80;;;2.50;;
4053;SDS011;2042;47.956;9.222;2024-02-26T03:04:26;2.83;;;2.23;;
4053;SDS011;2042;47.956;9.222;2024-02-26T03:06:52;2.77;;;2.57;;
4053;SDS011;2042;47.956;9.222;2024-02-26T03:09:18;3.10;;;2.80;;
4053;SDS011;2042;47.956;9.222;2024-02-26T03:11:44;2.50;;;2.30;;
4053;SDS011;2042;47.956;9.222;2024-02-26T03:14:09;1.87;;;1.77;;
4053;SDS011;2042;47.956;9.222;2024-02-26T03:16:35;2.47;;;2.27;;
4053;SDS011;2042;47.956;9.222;2024-02-26T03:19:00;3.30;;;2.90;;
4053;SDS011;2042;47.956;9.222;2024-02-26T03:21:26;3.13;;;2.90;;
4053;SDS011;2042;47.956;9.222;2024-02-26T03:23:52;2.90;;;2.70;;
4053;SDS011;2042;47.956;9.222;2024-02-26T03:26:18;3.30;;;2.70;;
4053;SDS011;2042;47.956;9.222;2024-02-26T03:28:44;3.37;;;2.57;;
4053;SDS011;2042;47.956;9.222;2024-02-26T03:31:09;2.77;;;2.53;;
4053;SDS011;2042;47.956;9.222;2024-02-26T03:33:35;2.20;;;2.00;;
4053;SDS011;2042;47.956;9.222;2024-02-26T03:36:01;2.47;;;2.27;;
4053;SDS011;2042;47.956;9.222;2024-02-26T03:38:28;3.00;;;2.40;;
4053;SDS011;2042;47.956;9.222;2024-02-26T03:40:55;3.20;;;2.70;;
4053;SDS011;2042;47.956;9.222;2024-02-26T03:43:21;2.90;;;2.50;;
4053;SDS011;2042;47.956;9.222;2024-02-26T03:45:47;2.30;;;2.10;;
4053;SDS011;2042;47.956;9.222;2024-02-26T03:48:12;2.40;;;2.20;;
4053;SDS011;2042;47.956;9.222;2024-02-26T03:50:38;3.20;;;2.73;;
4053;SDS011;2042;47.956;9.222;2024-02-26T03:53:04;2.17;;;1.93;;
4053;SDS011;2042;47.956;9.222;2024-02-26T03:55:30;2.40;;;2.20;;
4053;SDS011;2042;47.956;9.222;2024-02-26T03:57:55;2.67;;;2.47;;
4053;SDS011;2042;47.956;9.222;2024-02-26T04:00:21;2.60;;;2.30;;
4053;SDS011;2042;47.956;9.222;2024-02-26T04:02:47;3.37;;;2.13;;
4053;SDS011;2042;47.956;9.222;2024-02-26T04:05:13;2.87;;;2.63;;
4053;SDS011;2042;47.956;9.222;2024-02-26T04:07:40;2.57;;;1.90;;
4053;SDS011;2042;47.956;9.222;2024-02-26T04:10:09;2.60;;;2.40;;
4053;SDS011;2042;47.956;9.222;2024-02-26T04:12:37;2.53;;;2.27;;
4053;SDS011;2042;47.956;9.222;2024-02-26T04:15:10;3.30;;;2.30;;
4053;SDS011;2042;47.956;9.222;2024-02-26T04:17:36;2.97;;;2.50;;
4053;SDS011;2042;47.956;9.222;2024-02-26T04:20:03;7.13;;;2.90;;
4053;SDS011;2042;47.956;9.222;2024-02-26T04:22:30;3.13;;;2.30;;
4053;SDS011;2042;47.956;9.222;2024-02-26T04:24:57;4.30;;;2.80;;
4053;SDS011;2042;47.956;9.222;2024-02-26T04:27:23;3.50;;;3.20;;
4053;SDS011;2042;47.956;9.222;2024-02-26T04:29:48;3.50;;;3.20;;
4053;SDS011;2042;47.956;9.222;2024-02-26T04:32:14;6.10;;;3.10;;
4053;SDS011;2042;47.956;9.222;2024-02-26T04:34:40;5.50;;;3.03;;
4053;SDS011;2042;47.956;9.222;2024-02-26T04:37:06;3.50;;;3.20;;
4053;SDS011;2042;47.956;9.222;2024-02-26T04:39:32;4.67;;;3.50;;
4053;SDS011;2042;47.956;9.222;2024-02-26T04:41:58;3.50;;;3.17;;
4053;SDS011;2042;47.956;9.222;2024-02-26T04:44:23;4.37;;;3.60;;
4053;SDS011;2042;47.956;9.222;2024-02-26T04:46:49;4.80;;;2.87;;
4053;SDS011;2042;47.956;9.222;2024-02-26T04:49:15;5.10;;;3.60;;
4053;SDS011;2042;47.956;9.222;2024-02-26T04:51:40;5.60;;;3.20;;
4053;SDS011;2042;47.956;9.222;2024-02-26T04:54:06;3.53;;;2.90;;
4053;SDS011;2042;47.956;9.222;2024-02-26T04:56:32;8.57;;;3.57;;
4053;SDS011;2042;47.956;9.222;2024-02-26T04:58:57;4.13;;;3.77;;
4053;SDS011;2042;47.956;9.222;2024-02-26T05:01:23;3.90;;;3.60;;
4053;SDS011;2042;47.956;9.222;2024-02-26T05:03:49;5.20;;;4.23;;
4053;SDS011;2042;47.956;9.222;2024-02-26T05:06:14;3.90;;;3.30;;
4053;SDS011;2042;47.956;9.222;2024-02-26T05:08:40;4.83;;;4.30;;
4053;SDS011;2042;47.956;9.222;2024-02-26T05:11:06;5.20;;;4.70;;
4053;SDS011;2042;47.956;9.222;2024-02-26T05:13:32;3.80;;;3.50;;
4053;SDS011;2042;47.956;9.222;2024-02-26T05:15:57;5.23;;;4.30;;
4053;SDS011;2042;47.956;9.222;2024-02-26T05:18:23;5.70;;;4.80;;
4053;SDS011;2042;47.956;9.222;2024-02-26T05:20:49;4.67;;;4.27;;
4053;SDS011;2042;47.956;9.222;2024-02-26T05:23:14;5.20;;;4.70;;
4053;SDS011;2042;47.956;9.222;2024-02-26T05:25:40;8.07;;;4.30;;
4053;SDS011;2042;47.956;9.222;2024-02-26T05:28:06;4.20;;;3.87;;
4053;SDS011;2042;47.956;9.222;2024-02-26T05:30:32;5.23;;;4.73;;
4053;SDS011;2042;47.956;9.222;2024-02-26T05:32:57;5.77;;;4.50;;
4053;SDS011;2042;47.956;9.222;2024-02-26T05:35:24;6.00;;;5.50;;
4053;SDS011;2042;47.956;9.222;2024-02-26T05:37:50;5.43;;;4.50;;
4053;SDS011;2042;47.956;9.222;2024-02-26T05:40:16;5.27;;;4.00;;
4053;SDS011;2042;47.956;9.222;2024-02-26T05:42:42;5.70;;;4.77;;
4053;SDS011;2042;47.956;9.222;2024-02-26T05:45:10;6.63;;;4.20;;
4053;SDS011;2042;47.956;9.222;2024-02-26T05:47:37;10.70;;;4.90;;
4053;SDS011;2042;47.956;9.222;2024-02-26T05:50:08;4.83;;;4.43;;
4053;SDS011;2042;47.956;9.222;2024-02-26T05:52:36;13.60;;;5.00;;
4053;SDS011;2042;47.956;9.222;2024-02-26T05:55:05;6.23;;;5.60;;
4053;SDS011;2042;47.956;9.222;2024-02-26T05:57:31;6.37;;;4.57;;
4053;SDS011;2042;47.956;9.222;2024-02-26T05:59:58;6.68;;;5.05;;
4053;SDS011;2042;47.956;9.222;2024-02-26T06:02:28;7.50;;;6.77;;
4053;SDS011;2042;47.956;9.222;2024-02-26T06:04:54;5.60;;;4.50;;
4053;SDS011;2042;47.956;9.222;2024-02-26T06:07:20;5.40;;;4.90;;
4053;SDS011;2042;47.956;9.222;2024-02-26T06:09:46;7.80;;;6.33;;
4053;SDS011;2042;47.956;9.222;2024-02-26T06:12:11;5.80;;;4.73;;
4053;SDS011;2042;47.956;9.222;2024-02-26T06:14:37;5.60;;;4.70;;
4053;SDS011;2042;47.956;9.222;2024-02-26T06:17:03;5.20;;;4.70;;
4053;SDS011;2042;47.956;9.222;2024-02-26T06:19:28;5.60;;;4.83;;
4053;SDS011;2042;47.956;9.222;2024-02-26T06:21:54;9.40;;;4.90;;
4053;SDS011;2042;47.956;9.222;2024-02-26T06:24:19;5.50;;;4.93;;
4053;SDS011;2042;47.956;9.222;2024-02-26T06:26:47;8.03;;;5.13;;
4053;SDS011;2042;47.956;9.222;2024-02-26T06:29:13;15.90;;;5.50;;
4053;SDS011;2042;47.956;9.222;2024-02-26T06:31:39;6.13;;;5.47;;
4053;SDS011;2042;47.956;9.222;2024-02-26T06:34:05;12.00;;;6.20;;
4053;SDS011;2042;47.956;9.222;2024-02-26T06:36:30;6.07;;;4.57;;
4053;SDS011;2042;47.956;9.222;2024-02-26T06:38:57;6.67;;;5.23;;
4053;SDS011;2042;47.956;9.222;2024-02-26T06:41:22;5.80;;;4.60;;
4053;SDS011;2042;47.956;9.222;2024-02-26T06:43:56;6.37;;;5.60;;
4053;SDS011;2042;47.956;9.222;2024-02-26T06:46:22;7.07;;;4.40;;
4053;SDS011;2042;47.956;9.222;2024-02-26T06:48:49;10.00;;;4.90;;
4053;SDS011;2042;47.956;9.222;2024-02-26T06:51:15;8.43;;;5.30;;
4053;SDS011;2042;47.956;9.222;2024-02-26T06:53:40;5.40;;;4.60;;
4053;SDS011;2042;47.956;9.222;2024-02-26T06:56:06;17.13;;;6.50;;
4053;SDS011;2042;47.956;9.222;2024-02-26T06:58:31;6.93;;;5.23;;
4053;SDS011;2042;47.956;9.222;2024-02-26T07:00:57;12.63;;;6.00;;
4053;SDS011;2042;47.956;9.222;2024-02-26T07:03:23;7.27;;;5.00;;
4053;SDS011;2042;47.956;9.222;2024-02-26T07:05:50;5.33;;;4.83;;
4053;SDS011;2042;47.956;9.222;2024-02-26T07:08:16;7.50;;;5.60;;
4053;SDS011;2042;47.956;9.222;2024-02-26T07:10:42;9.43;;;5.70;;
4053;SDS011;2042;47.956;9.222;2024-02-26T07:13:08;5.07;;;4.63;;
4053;SDS011;2042;47.956;9.222;2024-02-26T07:15:34;6.17;;;5.57;;
4053;SDS011;2042;47.956;9.222;2024-02-26T07:18:00;7.30;;;4.90;;
4053;SDS011;2042;47.956;9.222;2024-02-26T07:20:28;5.50;;;4.97;;
4053;SDS011;2042;47.956;9.222;2024-02-26T07:22:55;4.97;;;4.30;;
4053;SDS011;2042;47.956;9.222;2024-02-26T07:25:21;5.47;;;4.63;;
4053;SDS011;2042;47.956;9.222;2024-02-26T07:27:46;6.13;;;5.33;;
4053;SDS011;2042;47.956;9.222;2024-02-26T07:30:12;5.17;;;4.67;;
4053;SDS011;2042;47.956;9.222;2024-02-26T07:32:38;5.83;;;4.43;;
4053;SDS011;2042;47.956;9.222;2024-02-26T07:35:04;4.80;;;4.40;;
4053;SDS011;2042;47.956;9.222;2024-02-26T07:37:30;4.43;;;4.03;;
4053;SDS011;2042;47.956;9.222;2024-02-26T07:39:56;4.57;;;4.13;;
4053;SDS011;2042;47.956;9.222;2024-02-26T07:42:21;4.03;;;3.33;;
4053;SDS011;2042;47.956;9.222;2024-02-26T07:44:47;4.87;;;4.10;;
4053;SDS011;2042;47.956;9.222;2024-02-26T07:47:13;3.50;;;3.20;;
4053;SDS011;2042;47.956;9.222;2024-02-26T07:49:39;3.33;;;3.03;;
4053;SDS011;2042;47.956;9.222;2024-02-26T07:52:05;5.10;;;3.67;;
4053;SDS011;2042;47.956;9.222;2024-02-26T07:54:31;4.13;;;3.70;;
4053;SDS011;2042;47.956;9.222;2024-02-26T07:56:57;3.93;;;3.40;;
4053;SDS011;2042;47.956;9.222;2024-02-26T07:59:23;4.47;;;3.93;;
4053;SDS011;2042;47.956;9.222;2024-02-26T08:01:52;3.83;;;3.40;;
4053;SDS011;2042;47.956;9.222;2024-02-26T08:04:17;6.00;;;3.90;;
4053;SDS011;2042;47.956;9.222;2024-02-26T08:06:43;5.13;;;3.33;;
4053;SDS011;2042;47.956;9.222;2024-02-26T08:09:09;4.90;;;4.40;;
4053;SDS011;2042;47.956;9.222;2024-02-26T08:11:35;4.83;;;3.60;;
4053;SDS011;2042;47.956;9.222;2024-02-26T08:14:00;3.53;;;3.23;;
4053;SDS011;2042;47.956;9.222;2024-02-26T08:16:26;5.73;;;3.87;;
4053;SDS011;2042;47.956;9.222;2024-02-26T08:18:52;2.80;;;2.43;;
4053;SDS011;2042;47.956;9.222;2024-02-26T08:21:18;3.37;;;3.10;;
4053;SDS011;2042;47.956;9.222;2024-02-26T08:23:43;3.77;;;3.30;;
4053;SDS011;2042;47.956;9.222;2024-02-26T08:26:09;5.10;;;3.80;;
4053;SDS011;2042;47.956;9.222;2024-02-26T08:28:39;3.10;;;2.87;;
4053;SDS011;2042;47.956;9.222;2024-02-26T08:31:04;4.67;;;3.00;;
4053;SDS011;2042;47.956;9.222;2024-02-26T08:33:30;3.83;;;3.40;;
4053;SDS011;2042;47.956;9.222;2024-02-26T08:35:56;3.27;;;2.97;;
4053;SDS011;2042;47.956;9.222;2024-02-26T08:38:22;3.90;;;3.53;;
4053;SDS011;2042;47.956;9.222;2024-02-26T08:40:48;3.53;;;3.23;;
4053;SDS011;2042;47.956;9.222;2024-02-26T08:43:14;3.50;;;3.20;;
4053;SDS011;2042;47.956;9.222;2024-02-26T08:45:39;4.53;;;3.17;;
4053;SDS011;2042;47.956;9.222;2024-02-26T08:48:05;3.40;;;3.10;;
4053;SDS011;2042;47.956;9.222;2024-02-26T08:50:31;3.40;;;3.10;;
4053;SDS011;2042;47.956;9.222;2024-02-26T08:52:57;3.87;;;3.47;;
4053;SDS011;2042;47.956;9.222;2024-02-26T08:55:23;4.20;;;3.80;;
4053;SDS011;2042;47.956;9.222;2024-02-26T08:57:48;3.37;;;3.07;;
4053;SDS011;2042;47.956;9.222;2024-02-26T09:00:14;4.40;;;4.00;;
4053;SDS011;2042;47.956;9.222;2024-02-26T09:02:42;6.27;;;2.80;;
4053;SDS011;2042;47.956;9.222;2024-02-26T09:05:09;3.50;;;2.80;;
4053;SDS011;2042;47.956;9.222;2024-02-26T09:07:35;3.40;;;2.80;;
4053;SDS011;2042;47.956;9.222;2024-02-26T09:10:01;4.33;;;3.30;;
4053;SDS011;2042;47.956;9.222;2024-02-26T09:12:27;3.80;;;3.10;;
4053;SDS011;2042;47.956;9.222;2024-02-26T09:14:53;3.40;;;3.07;;
4053;SDS011;2042;47.956;9.222;2024-02-26T09:17:21;3.47;;;3.20;;
4053;SDS011;2042;47.956;9.222;2024-02-26T09:19:46;3.73;;;3.43;;
4053;SDS011;2042;47.956;9.222;2024-02-26T09:22:13;3.07;;;2.77;;
4053;SDS011;2042;47.956;9.222;2024-02-26T09:24:38;4.80;;;3.10;;
4053;SDS011;2042;47.956;9.222;2024-02-26T09:27:04;3.10;;;2.80;;
4053;SDS011;2042;47.956;9.222;2024-02-26T09:29:29;3.40;;;3.10;;
4053;SDS011;2042;47.956;9.222;2024-02-26T09:31:55;3.20;;;2.90;;
4053;SDS011;2042;47.956;9.222;2024-02-26T09:34:21;2.93;;;2.73;;
4053;SDS011;2042;47.956;9.222;2024-02-26T09:36:46;3.23;;;2.93;;
4053;SDS011;2042;47.956;9.222;2024-02-26T09:39:12;4.10;;;3.70;;
4053;SDS011;2042;47.956;9.222;2024-02-26T09:41:39;5.80;;;3.20;;
4053;SDS011;2042;47.956;9.222;2024-02-26T09:44:05;3.33;;;3.03;;
4053;SDS011;2042;47.956;9.222;2024-02-26T09:46:32;3.03;;;2.73;;
4053;SDS011;2042;47.956;9.222;2024-02-26T09:48:58;10.10;;;4.77;;
4053;SDS011;2042;47.956;9.222;2024-02-26T09:51:24;3.13;;;2.83;;
4053;SDS011;2042;47.956;9.222;2024-02-26T09:53:51;3.27;;;2.97;;
4053;SDS011;2042;47.956;9.222;2024-02-26T09:56:17;3.60;;;3.13;;
4053;SDS011;2042;47.956;9.222;2024-02-26T09:58:43;2.90;;;2.70;;
4053;SDS011;2042;47.956;9.222;2024-02-26T10:01:13;4.27;;;3.60;;
4053;SDS011;2042;47.956;9.222;2024-02-26T10:03:43;3.00;;;2.80;;
4053;SDS011;2042;47.956;9.222;2024-02-26T10:06:10;3.40;;;3.10;;
4053;SDS011;2042;47.956;9.222;2024-02-26T10:08:36;3.77;;;3.47;;
4053;SDS011;2042;47.956;9.222;2024-02-26T10:11:04;3.73;;;3.33;;
4053;SDS011;2042;47.956;9.222;2024-02-26T10:13:31;4.30;;;3.20;;
4053;SDS011;2042;47.956;9.222;2024-02-26T10:15:57;3.83;;;3.53;;
4053;SDS011;2042;47.956;9.222;2024-02-26T10:18:23;4.30;;;3.90;;
4053;SDS011;2042;47.956;9.222;2024-02-26T10:20:59;7.60;;;3.73;;
4053;SDS011;2042;47.956;9.222;2024-02-26T10:23:28;3.13;;;2.83;;
4053;SDS011;2042;47.956;9.222;2024-02-26T10:25:54;3.27;;;2.97;;
4053;SDS011;2042;47.956;9.222;2024-02-26T10:28:20;3.10;;;2.80;;
4053;SDS011;2042;47.956;9.222;2024-02-26T10:30:46;4.03;;;2.80;;
4053;SDS011;2042;47.956;9.222;2024-02-26T10:33:12;2.30;;;2.07;;
4053;SDS011;2042;47.956;9.222;2024-02-26T10:35:39;3.77;;;3.47;;
4053;SDS011;2042;47.956;9.222;2024-02-26T10:38:10;2.83;;;2.63;;
4053;SDS011;2042;47.956;9.222;2024-02-26T10:40:35;4.20;;;2.77;;
4053;SDS011;2042;47.956;9.222;2024-02-26T10:43:01;2.80;;;2.40;;
4053;SDS011;2042;47.956;9.222;2024-02-26T10:45:27;2.43;;;2.23;;
4053;SDS011;2042;47.956;9.222;2024-02-26T10:47:53;2.67;;;2.47;;
4053;SDS011;2042;47.956;9.222;2024-02-26T10:50:19;3.13;;;2.73;;
4053;SDS011;2042;47.956;9.222;2024-02-26T10:52:45;4.60;;;3.80;;
4053;SDS011;2042;47.956;9.222;2024-02-26T10:55:15;3.33;;;3.03;;
4053;SDS011;2042;47.956;9.222;2024-02-26T10:57:45;3.60;;;2.87;;
4053;SDS011;2042;47.956;9.222;2024-02-26T11:00:13;3.70;;;3.40;;
4053;SDS011;2042;47.956;9.222;2024-02-26T11:02:40;3.70;;;3.40;;
4053;SDS011;2042;47.956;9.222;2024-02-26T11:05:07;4.83;;;3.80;;
4053;SDS011;2042;47.956;9.222;2024-02-26T11:07:36;4.20;;;3.80;;
4053;SDS011;2042;47.956;9.222;2024-02-26T11:10:03;4.57;;;3.63;;
4053;SDS011;2042;47.956;9.222;2024-02-26T11:12:31;3.90;;;3.50;;
4053;SDS011;2042;47.956;9.222;2024-02-26T11:14:59;5.90;;;3.80;;
4053;SDS011;2042;47.956;9.222;2024-02-26T11:17:27;4.27;;;3.60;;
4053;SDS011;2042;47.956;9.222;2024-02-26T11:19:57;4.20;;;3.80;;
4053;SDS011;2042;47.956;9.222;2024-02-26T11:22:24;3.50;;;3.20;;
4053;SDS011;2042;47.956;9.222;2024-02-26T11:24:54;4.07;;;3.70;;
4053;SDS011;2042;47.956;9.222;2024-02-26T11:27:23;4.47;;;3.40;;
4053;SDS011;2042;47.956;9.222;2024-02-26T11:29:55;4.03;;;3.70;;
4053;SDS011;2042;47.956;9.222;2024-02-26T11:32:22;3.63;;;3.27;;
4053;SDS011;2042;47.956;9.222;2024-02-26T11:34:48;6.33;;;4.10;;
4053;SDS011;2042;47.956;9.222;2024-02-26T11:37:15;4.70;;;3.40;;
4053;SDS011;2042;47.956;9.222;2024-02-26T11:39:42;4.57;;;4.03;;
4053;SDS011;2042;47.956;9.222;2024-02-26T11:42:10;3.73;;;3.43;;
4053;SDS011;2042;47.956;9.222;2024-02-26T11:44:39;4.00;;;3.17;;
4053;SDS011;2042;47.956;9.222;2024-02-26T11:47:12;3.40;;;3.10;;
4053;SDS011;2042;47.956;9.222;2024-02-26T11:49:45;3.77;;;3.00;;
4053;SDS011;2042;47.956;9.222;2024-02-26T11:52:12;3.40;;;3.10;;
4053;SDS011;2042;47.956;9.222;2024-02-26T11:57:27;3.37;;;2.80;;
4053;SDS011;2042;47.956;9.222;2024-02-26T11:59:54;3.73;;;3.30;;
4053;SDS011;2042;47.956;9.222;2024-02-26T12:03:03;4.80;;;3.10;;
4053;SDS011;2042;47.956;9.222;2024-02-26T12:07:45;3.90;;;3.27;;
4053;SDS011;2042;47.956;9.222;2024-02-26T12:12:54;4.90;;;3.30;;
4053;SDS011;2042;47.956;9.222;2024-02-26T12:15:26;4.30;;;3.23;;
4053;SDS011;2042;47.956;9.222;2024-02-26T12:17:57;3.47;;;2.90;;
4053;SDS011;2042;47.956;9.222;2024-02-26T12:20:25;3.03;;;2.73;;
4053;SDS011;2042;47.956;9.222;2024-02-26T12:22:50;3.33;;;2.87;;
4053;SDS011;2042;47.956;9.222;2024-02-26T12:25:17;4.00;;;2.97;;
4053;SDS011;2042;47.956;9.222;2024-02-26T12:27:46;3.30;;;2.83;;
4053;SDS011;2042;47.956;9.222;2024-02-26T12:30:12;4.57;;;2.57;;
4053;SDS011;2042;47.956;9.222;2024-02-26T12:32:38;2.40;;;2.20;;
4053;SDS011;2042;47.956;9.222;2024-02-26T12:35:05;3.70;;;2.60;;
4053;SDS011;2042;47.956;9.222;2024-02-26T12:37:31;2.23;;;2.07;;
4053;SDS011;2042;47.956;9.222;2024-02-26T12:39:57;2.33;;;2.13;;
4053;SDS011;2042;47.956;9.222;2024-02-26T12:42:23;3.40;;;2.87;;
4053;SDS011;2042;47.956;9.222;2024-02-26T12:44:49;3.17;;;2.20;;
4053;SDS011;2042;47.956;9.222;2024-02-26T12:47:15;4.13;;;2.30;;
4053;SDS011;2042;47.956;9.222;2024-02-26T12:49:42;4.37;;;3.33;;
4053;SDS011;2042;47.956;9.222;2024-02-26T12:52:09;2.30;;;1.80;;
4053;SDS011;2042;47.956;9.222;2024-02-26T12:54:35;2.47;;;2.27;;
4053;SDS011;2042;47.956;9.222;2024-02-26T12:57:04;1.93;;;1.73;;
4053;SDS011;2042;47.956;9.222;2024-02-26T12:59:31;2.20;;;1.80;;
4053;SDS011;2042;47.956;9.222;2024-02-26T13:01:59;2.10;;;1.90;;
4053;SDS011;2042;47.956;9.222;2024-02-26T13:04:26;2.40;;;1.63;;
4053;SDS011;2042;47.956;9.222;2024-02-26T13:06:54;1.40;;;1.30;;
4053;SDS011;2042;47.956;9.222;2024-02-26T13:09:20;4.30;;;1.30;;
4053;SDS011;2042;47.956;9.222;2024-02-26T13:11:53;1.60;;;1.30;;
4053;SDS011;2042;47.956;9.222;2024-02-26T13:14:21;3.40;;;1.57;;
4053;SDS011;2042;47.956;9.222;2024-02-26T13:16:57;1.40;;;1.27;;
4053;SDS011;2042;47.956;9.222;2024-02-26T13:19:23;2.17;;;1.70;;
4053;SDS011;2042;47.956;9.222;2024-02-26T13:21:49;1.40;;;1.00;;
4053;SDS011;2042;47.956;9.222;2024-02-26T13:24:15;1.87;;;1.60;;
4053;SDS011;2042;47.956;9.222;2024-02-26T13:26:41;1.93;;;1.60;;
4053;SDS011;2042;47.956;9.222;2024-02-26T13:29:07;2.00;;;1.80;;
4053;SDS011;2042;47.956;9.222;2024-02-26T13:31:38;1.93;;;1.83;;
4053;SDS011;2042;47.956;9.222;2024-02-26T13:34:07;2.90;;;1.90;;
4053;SDS011;2042;47.956;9.222;2024-02-26T13:36:33;2.37;;;1.80;;
4053;SDS011;2042;47.956;9.222;2024-02-26T13:38:58;3.07;;;2.13;;
4053;SDS011;2042;47.956;9.222;2024-02-26T13:41:25;2.20;;;2.00;;
4053;SDS011;2042;47.956;9.222;2024-02-26T13:43:51;2.67;;;2.47;;
4053;SDS011;2042;47.956;9.222;2024-02-26T13:46:17;2.80;;;2.33;;
4053;SDS011;2042;47.956;9.222;2024-02-26T13:48:42;3.10;;;2.30;;
4053;SDS011;2042;47.956;9.222;2024-02-26T13:51:08;2.13;;;1.83;;
4053;SDS011;2042;47.956;9.222;2024-02-26T13:53:34;2.57;;;2.37;;
4053;SDS011;2042;47.956;9.222;2024-02-26T13:56:00;2.73;;;2.53;;
4053;SDS011;2042;47.956;9.222;2024-02-26T13:58:26;3.07;;;2.70;;
4053;SDS011;2042;47.956;9.222;2024-02-26T14:00:53;3.20;;;2.70;;
4053;SDS011;2042;47.956;9.222;2024-02-26T14:03:19;3.73;;;3.40;;
4053;SDS011;2042;47.956;9.222;2024-02-26T14:05:45;3.10;;;2.90;;
4053;SDS011;2042;47.956;9.222;2024-02-26T14:08:11;3.43;;;2.03;;
4053;SDS011;2042;47.956;9.222;2024-02-26T14:10:37;3.40;;;2.33;;
4053;SDS011;2042;47.956;9.222;2024-02-26T14:13:03;2.90;;;2.70;;
4053;SDS011;2042;47.956;9.222;2024-02-26T14:15:29;3.50;;;2.77;;
4053;SDS011;2042;47.956;9.222;2024-02-26T14:17:56;3.53;;;3.03;;
4053;SDS011;2042;47.956;9.222;2024-02-26T14:20:22;3.23;;;2.93;;
4053;SDS011;2042;47.956;9.222;2024-02-26T14:22:51;4.40;;;3.20;;
4053;SDS011;2042;47.956;9.222;2024-02-26T14:25:18;3.37;;;2.80;;
4053;SDS011;2042;47.956;9.222;2024-02-26T14:27:45;3.47;;;2.90;;
4053;SDS011;2042;47.956;9.222;2024-02-26T14:30:11;4.27;;;3.57;;
4053;SDS011;2042;47.956;9.222;2024-02-26T14:32:37;3.07;;;2.77;;
4053;SDS011;2042;47.956;9.222;2024-02-26T14:35:05;3.20;;;2.90;;
4053;SDS011;2042;47.956;9.222;2024-02-26T14:37:31;3.53;;;2.83;;
4053;SDS011;2042;47.956;9.222;2024-02-26T14:39:57;6.90;;;3.30;;
4053;SDS011;2042;47.956;9.222;2024-02-26T14:42:22;6.30;;;3.03;;
4053;SDS011;2042;47.956;9.222;2024-02-26T14:44:49;4.80;;;2.93;;
4053;SDS011;2042;47.956;9.222;2024-02-26T14:47:15;4.20;;;3.50;;
4053;SDS011;2042;47.956;9.222;2024-02-26T14:49:41;4.70;;;3.30;;
4053;SDS011;2042;47.956;9.222;2024-02-26T14:52:07;4.23;;;2.67;;
4053;SDS011;2042;47.956;9.222;2024-02-26T14:54:33;3.80;;;3.40;;
4053;SDS011;2042;47.956;9.222;2024-02-26T14:57:05;3.43;;;3.13;;
4053;SDS011;2042;47.956;9.222;2024-02-26T14:59:32;3.93;;;3.37;;
4053;SDS011;2042;47.956;9.222;2024-02-26T15:01:58;4.33;;;3.07;;
4053;SDS011;2042;47.956;9.222;2024-02-26T15:04:26;3.23;;;2.50;;
4053;SDS011;2042;47.956;9.222;2024-02-26T15:06:52;4.80;;;3.03;;
4053;SDS011;2042;47.956;9.222;2024-02-26T15:09:17;5.47;;;4.90;;
4053;SDS011;2042;47.956;9.222;2024-02-26T15:11:43;4.60;;;3.40;;
4053;SDS011;2042;47.956;9.222;2024-02-26T15:14:09;5.33;;;3.70;;
4053;SDS011;2042;47.956;9.222;2024-02-26T15:16:35;6.03;;;4.37;;
4053;SDS011;2042;47.956;9.222;2024-02-26T15:19:02;3.80;;;3.40;;